sensor_id;sensor_type;location;lat;lon;timestamp;temperature;humidity
1175;DHT22;576;48.418;10.074;2023-11-22T00:01:56;23.90;63.50
1175;DHT22;576;48.418;10.074;2023-11-22T00:04:25;23.80;63.50
1175;DHT22;576;48.418;10.074;2023-11-22T00:06:53;23.80;63.40
1175;DHT22;576;48.418;10.074;2023-11-22T00:09:21;23.80;63.40
1175;DHT22;576;48.418;10.074;2023-11-22T00:11:50;23.80;63.40
1175;DHT22;576;48.418;10.074;2023-11-22T00:14:19;23.80;63.40
1175;DHT22;576;48.418;10.074;2023-11-22T00:16:48;23.80;63.40
1175;DHT22;576;48.418;10.074;2023-11-22T00:19:17;23.80;63.40
1175;DHT22;576;48.418;10.074;2023-11-22T00:21:49;23.80;63.30
1175;DHT22;576;48.418;10.074;2023-11-22T00:24:17;23.80;63.30
1175;DHT22;576;48.418;10.074;2023-11-22T00:26:45;23.80;63.30
1175;DHT22;576;48.418;10.074;2023-11-22T00:29:13;23.80;63.30
1175;DHT22;576;48.418;10.074;2023-11-22T00:31:43;23.80;63.30
1175;DHT22;576;48.418;10.074;2023-11-22T00:34:12;23.70;63.30
1175;DHT22;576;48.418;10.074;2023-11-22T00:36:43;23.70;63.30
1175;DHT22;576;48.418;10.074;2023-11-22T00:39:11;23.70;63.30
1175;DHT22;576;48.418;10.074;2023-11-22T00:41:40;23.70;63.30
1175;DHT22;576;48.418;10.074;2023-11-22T00:44:08;23.70;63.30
1175;DHT22;576;48.418;10.074;2023-11-22T00:46:36;23.70;63.30
1175;DHT22;576;48.418;10.074;2023-11-22T00:49:06;23.70;63.30
1175;DHT22;576;48.418;10.074;2023-11-22T00:51:35;23.60;63.30
1175;DHT22;576;48.418;10.074;2023-11-22T00:54:03;23.60;63.30
1175;DHT22;576;48.418;10.074;2023-11-22T00:56:32;23.60;63.30
1175;DHT22;576;48.418;10.074;2023-11-22T00:59:00;23.60;63.30
1175;DHT22;576;48.418;10.074;2023-11-22T01:01:31;23.60;63.30
1175;DHT22;576;48.418;10.074;2023-11-22T01:04:00;23.60;63.30
1175;DHT22;576;48.418;10.074;2023-11-22T01:06:30;23.60;63.30
1175;DHT22;576;48.418;10.074;2023-11-22T01:08:59;23.60;63.30
1175;DHT22;576;48.418;10.074;2023-11-22T01:11:27;23.50;63.30
1175;DHT22;576;48.418;10.074;2023-11-22T01:13:55;23.50;63.30
1175;DHT22;576;48.418;10.074;2023-11-22T01:16:23;23.50;63.30
1175;DHT22;576;48.418;10.074;2023-11-22T01:18:52;23.50;63.30
1175;DHT22;576;48.418;10.074;2023-11-22T01:21:20;23.50;63.30
1175;DHT22;576;48.418;10.074;2023-11-22T01:23:51;23.50;63.30
1175;DHT22;576;48.418;10.074;2023-11-22T01:26:19;23.50;63.30
1175;DHT22;576;48.418;10.074;2023-11-22T01:28:47;23.50;63.30
1175;DHT22;576;48.418;10.074;2023-11-22T01:31:15;23.50;63.30
1175;DHT22;576;48.418;10.074;2023-11-22T01:33:47;23.40;63.30
1175;DHT22;576;48.418;10.074;2023-11-22T01:36:16;23.40;63.30
1175;DHT22;576;48.418;10.074;2023-11-22T01:38:44;23.40;63.30
1175;DHT22;576;48.418;10.074;2023-11-22T01:41:14;23.40;63.30
1175;DHT22;576;48.418;10.074;2023-11-22T01:43:42;23.40;63.40
1175;DHT22;576;48.418;10.074;2023-11-22T01:46:21;23.40;63.40
1175;DHT22;576;48.418;10.074;2023-11-22T01:48:50;23.40;63.40
1175;DHT22;576;48.418;10.074;2023-11-22T01:51:20;23.30;63.40
1175;DHT22;576;48.418;10.074;2023-11-22T01:53:50;23.30;63.40
1175;DHT22;576;48.418;10.074;2023-11-22T01:56:22;23.30;63.40
1175;DHT22;576;48.418;10.074;2023-11-22T01:58:51;23.30;63.40
1175;DHT22;576;48.418;10.074;2023-11-22T02:01:21;23.30;63.40
1175;DHT22;576;48.418;10.074;2023-11-22T02:03:49;23.30;63.60
1175;DHT22;576;48.418;10.074;2023-11-22T02:06:19;23.30;63.60
1175;DHT22;576;48.418;10.074;2023-11-22T02:08:49;23.30;63.60
1175;DHT22;576;48.418;10.074;2023-11-22T02:11:18;23.20;63.60
1175;DHT22;576;48.418;10.074;2023-11-22T02:13:51;23.20;63.60
1175;DHT22;576;48.418;10.074;2023-11-22T02:16:20;23.20;63.60
1175;DHT22;576;48.418;10.074;2023-11-22T02:18:49;23.20;63.60
1175;DHT22;576;48.418;10.074;2023-11-22T02:21:17;23.20;63.60
1175;DHT22;576;48.418;10.074;2023-11-22T02:23:47;23.20;63.60
1175;DHT22;576;48.418;10.074;2023-11-22T02:26:16;23.20;63.60
1175;DHT22;576;48.418;10.074;2023-11-22T02:28:45;23.10;63.60
1175;DHT22;576;48.418;10.074;2023-11-22T02:31:16;23.10;63.60
1175;DHT22;576;48.418;10.074;2023-11-22T02:33:44;23.10;63.60
1175;DHT22;576;48.418;10.074;2023-11-22T02:36:12;23.10;63.60
1175;DHT22;576;48.418;10.074;2023-11-22T02:38:40;23.10;63.60
1175;DHT22;576;48.418;10.074;2023-11-22T02:41:12;23.10;63.60
1175;DHT22;576;48.418;10.074;2023-11-22T02:43:40;23.10;63.60
1175;DHT22;576;48.418;10.074;2023-11-22T02:46:09;23.10;63.60
1175;DHT22;576;48.418;10.074;2023-11-22T02:48:37;23.10;63.60
1175;DHT22;576;48.418;10.074;2023-11-22T02:51:06;23.10;63.60
1175;DHT22;576;48.418;10.074;2023-11-22T02:53:34;23.10;63.60
1175;DHT22;576;48.418;10.074;2023-11-22T02:56:03;23.00;63.60
1175;DHT22;576;48.418;10.074;2023-11-22T02:58:33;23.10;63.60
1175;DHT22;576;48.418;10.074;2023-11-22T03:01:01;23.00;63.60
1175;DHT22;576;48.418;10.074;2023-11-22T03:03:30;23.00;63.50
1175;DHT22;576;48.418;10.074;2023-11-22T03:05:58;23.00;63.50
1175;DHT22;576;48.418;10.074;2023-11-22T03:08:27;23.00;63.50
1175;DHT22;576;48.418;10.074;2023-11-22T03:10:55;23.00;63.50
1175;DHT22;576;48.418;10.074;2023-11-22T03:13:23;23.00;63.50
1175;DHT22;576;48.418;10.074;2023-11-22T03:15:53;23.00;63.60
1175;DHT22;576;48.418;10.074;2023-11-22T03:18:22;23.00;63.50
1175;DHT22;576;48.418;10.074;2023-11-22T03:20:50;23.00;63.50
1175;DHT22;576;48.418;10.074;2023-11-22T03:23:21;23.00;63.50
1175;DHT22;576;48.418;10.074;2023-11-22T03:25:50;22.90;63.50
1175;DHT22;576;48.418;10.074;2023-11-22T03:28:18;22.90;63.50
1175;DHT22;576;48.418;10.074;2023-11-22T03:30:46;22.90;63.50
1175;DHT22;576;48.418;10.074;2023-11-22T03:33:16;22.90;63.50
1175;DHT22;576;48.418;10.074;2023-11-22T03:35:45;22.90;63.50
1175;DHT22;576;48.418;10.074;2023-11-22T03:38:13;22.90;63.50
1175;DHT22;576;48.418;10.074;2023-11-22T03:40:41;22.90;63.60
1175;DHT22;576;48.418;10.074;2023-11-22T03:43:09;22.90;63.50
1175;DHT22;576;48.418;10.074;2023-11-22T03:45:38;22.90;63.60
1175;DHT22;576;48.418;10.074;2023-11-22T03:48:07;22.90;63.50
1175;DHT22;576;48.418;10.074;2023-11-22T03:50:36;22.90;63.50
1175;DHT22;576;48.418;10.074;2023-11-22T03:53:04;22.90;63.50
1175;DHT22;576;48.418;10.074;2023-11-22T03:55:33;22.80;63.50
1175;DHT22;576;48.418;10.074;2023-11-22T03:58:01;22.80;63.60
1175;DHT22;576;48.418;10.074;2023-11-22T04:00:29;22.80;63.50
1175;DHT22;576;48.418;10.074;2023-11-22T04:02:59;22.80;63.60
1175;DHT22;576;48.418;10.074;2023-11-22T04:05:28;22.80;63.60
1175;DHT22;576;48.418;10.074;2023-11-22T04:07:58;22.80;63.50
1175;DHT22;576;48.418;10.074;2023-11-22T04:10:26;22.80;63.50
1175;DHT22;576;48.418;10.074;2023-11-22T04:12:54;22.80;63.50
1175;DHT22;576;48.418;10.074;2023-11-22T04:15:22;22.80;63.60
1175;DHT22;576;48.418;10.074;2023-11-22T04:17:51;22.70;63.60
1175;DHT22;576;48.418;10.074;2023-11-22T04:20:21;22.70;63.60
1175;DHT22;576;48.418;10.074;2023-11-22T04:22:50;22.70;63.60
1175;DHT22;576;48.418;10.074;2023-11-22T04:25:19;22.70;63.60
1175;DHT22;576;48.418;10.074;2023-11-22T04:27:48;22.70;63.60
1175;DHT22;576;48.418;10.074;2023-11-22T04:30:16;22.70;63.60
1175;DHT22;576;48.418;10.074;2023-11-22T04:32:44;22.70;63.60
1175;DHT22;576;48.418;10.074;2023-11-22T04:35:13;22.70;63.60
1175;DHT22;576;48.418;10.074;2023-11-22T04:37:42;22.70;63.60
1175;DHT22;576;48.418;10.074;2023-11-22T04:40:11;22.70;63.60
1175;DHT22;576;48.418;10.074;2023-11-22T04:42:42;22.70;63.60
1175;DHT22;576;48.418;10.074;2023-11-22T04:45:11;22.70;63.60
1175;DHT22;576;48.418;10.074;2023-11-22T04:47:39;22.70;63.60
1175;DHT22;576;48.418;10.074;2023-11-22T04:50:09;22.70;63.60
1175;DHT22;576;48.418;10.074;2023-11-22T04:52:37;22.60;63.60
1175;DHT22;576;48.418;10.074;2023-11-22T04:55:07;22.60;63.60
1175;DHT22;576;48.418;10.074;2023-11-22T04:57:35;22.60;63.60
1175;DHT22;576;48.418;10.074;2023-11-22T05:00:06;22.60;63.70
1175;DHT22;576;48.418;10.074;2023-11-22T05:02:35;22.60;63.70
1175;DHT22;576;48.418;10.074;2023-11-22T05:05:04;22.60;63.70
1175;DHT22;576;48.418;10.074;2023-11-22T05:07:32;22.60;63.80
1175;DHT22;576;48.418;10.074;2023-11-22T05:10:01;22.60;63.80
1175;DHT22;576;48.418;10.074;2023-11-22T05:12:30;22.60;63.80
1175;DHT22;576;48.418;10.074;2023-11-22T05:14:58;22.70;63.80
1175;DHT22;576;48.418;10.074;2023-11-22T05:17:28;22.70;63.80
1175;DHT22;576;48.418;10.074;2023-11-22T05:19:56;22.70;63.80
1175;DHT22;576;48.418;10.074;2023-11-22T05:22:24;22.70;63.80
1175;DHT22;576;48.418;10.074;2023-11-22T05:24:53;22.70;63.80
1175;DHT22;576;48.418;10.074;2023-11-22T05:27:21;22.80;63.80
1175;DHT22;576;48.418;10.074;2023-11-22T05:29:49;22.80;63.80
1175;DHT22;576;48.418;10.074;2023-11-22T05:32:21;22.80;63.70
1175;DHT22;576;48.418;10.074;2023-11-22T05:34:51;22.80;63.70
1175;DHT22;576;48.418;10.074;2023-11-22T05:37:19;22.90;63.70
1175;DHT22;576;48.418;10.074;2023-11-22T05:39:50;22.90;63.70
1175;DHT22;576;48.418;10.074;2023-11-22T05:42:18;22.90;63.70
1175;DHT22;576;48.418;10.074;2023-11-22T05:44:46;22.90;63.60
1175;DHT22;576;48.418;10.074;2023-11-22T05:47:17;23.00;63.60
1175;DHT22;576;48.418;10.074;2023-11-22T05:49:45;23.00;63.50
1175;DHT22;576;48.418;10.074;2023-11-22T05:52:17;23.00;63.50
1175;DHT22;576;48.418;10.074;2023-11-22T05:54:47;23.10;63.40
1175;DHT22;576;48.418;10.074;2023-11-22T05:57:15;23.10;63.30
1175;DHT22;576;48.418;10.074;2023-11-22T05:59:46;23.10;63.30
1175;DHT22;576;48.418;10.074;2023-11-22T06:02:14;23.10;63.20
1175;DHT22;576;48.418;10.074;2023-11-22T06:04:42;23.10;63.20
1175;DHT22;576;48.418;10.074;2023-11-22T06:07:11;23.10;63.10
1175;DHT22;576;48.418;10.074;2023-11-22T06:09:40;23.10;63.10
1175;DHT22;576;48.418;10.074;2023-11-22T06:12:09;23.10;63.00
1175;DHT22;576;48.418;10.074;2023-11-22T06:14:37;23.10;63.00
1175;DHT22;576;48.418;10.074;2023-11-22T06:17:05;23.10;62.90
1175;DHT22;576;48.418;10.074;2023-11-22T06:19:34;23.10;62.90
1175;DHT22;576;48.418;10.074;2023-11-22T06:22:02;23.10;62.90
1175;DHT22;576;48.418;10.074;2023-11-22T06:24:30;23.10;62.90
1175;DHT22;576;48.418;10.074;2023-11-22T06:27:01;23.10;62.90
1175;DHT22;576;48.418;10.074;2023-11-22T06:29:30;23.10;62.90
1175;DHT22;576;48.418;10.074;2023-11-22T06:31:58;23.10;63.00
1175;DHT22;576;48.418;10.074;2023-11-22T06:34:26;23.10;63.00
1175;DHT22;576;48.418;10.074;2023-11-22T06:36:55;23.10;63.10
1175;DHT22;576;48.418;10.074;2023-11-22T06:39:23;23.10;63.20
1175;DHT22;576;48.418;10.074;2023-11-22T06:41:52;23.10;63.20
1175;DHT22;576;48.418;10.074;2023-11-22T06:44:21;23.10;63.30
1175;DHT22;576;48.418;10.074;2023-11-22T06:46:50;23.10;63.30
1175;DHT22;576;48.418;10.074;2023-11-22T06:49:18;23.10;63.40
1175;DHT22;576;48.418;10.074;2023-11-22T06:51:46;23.10;63.40
1175;DHT22;576;48.418;10.074;2023-11-22T06:54:15;23.10;63.40
1175;DHT22;576;48.418;10.074;2023-11-22T06:56:43;23.10;63.50
1175;DHT22;576;48.418;10.074;2023-11-22T06:59:12;23.10;63.60
1175;DHT22;576;48.418;10.074;2023-11-22T07:01:42;23.10;63.70
1175;DHT22;576;48.418;10.074;2023-11-22T07:04:10;23.10;63.80
1175;DHT22;576;48.418;10.074;2023-11-22T07:06:39;23.10;63.90
1175;DHT22;576;48.418;10.074;2023-11-22T07:09:07;23.10;64.00
1175;DHT22;576;48.418;10.074;2023-11-22T07:11:36;23.10;64.00
1175;DHT22;576;48.418;10.074;2023-11-22T07:14:05;23.10;64.00
1175;DHT22;576;48.418;10.074;2023-11-22T07:16:33;23.10;63.90
1175;DHT22;576;48.418;10.074;2023-11-22T07:19:03;23.20;63.90
1175;DHT22;576;48.418;10.074;2023-11-22T07:21:33;23.10;63.90
1175;DHT22;576;48.418;10.074;2023-11-22T07:24:05;23.20;63.80
1175;DHT22;576;48.418;10.074;2023-11-22T07:26:35;23.20;63.80
1175;DHT22;576;48.418;10.074;2023-11-22T07:29:04;23.20;63.80
1175;DHT22;576;48.418;10.074;2023-11-22T07:31:33;23.20;63.70
1175;DHT22;576;48.418;10.074;2023-11-22T07:34:04;23.20;63.70
1175;DHT22;576;48.418;10.074;2023-11-22T07:36:32;23.20;63.60
1175;DHT22;576;48.418;10.074;2023-11-22T07:39:01;23.20;63.60
1175;DHT22;576;48.418;10.074;2023-11-22T07:41:30;23.20;63.60
1175;DHT22;576;48.418;10.074;2023-11-22T07:43:58;23.20;63.60
1175;DHT22;576;48.418;10.074;2023-11-22T07:46:26;23.20;63.60
1175;DHT22;576;48.418;10.074;2023-11-22T07:48:54;23.20;63.60
1175;DHT22;576;48.418;10.074;2023-11-22T07:51:24;23.20;63.60
1175;DHT22;576;48.418;10.074;2023-11-22T07:53:52;23.20;63.60
1175;DHT22;576;48.418;10.074;2023-11-22T07:56:20;23.20;63.60
1175;DHT22;576;48.418;10.074;2023-11-22T07:58:49;23.20;63.50
1175;DHT22;576;48.418;10.074;2023-11-22T08:01:17;23.20;63.50
1175;DHT22;576;48.418;10.074;2023-11-22T08:03:45;23.20;63.50
1175;DHT22;576;48.418;10.074;2023-11-22T08:06:15;23.10;63.50
1175;DHT22;576;48.418;10.074;2023-11-22T08:08:45;23.10;63.60
1175;DHT22;576;48.418;10.074;2023-11-22T08:11:14;23.20;63.60
1175;DHT22;576;48.418;10.074;2023-11-22T08:13:42;23.20;63.60
1175;DHT22;576;48.418;10.074;2023-11-22T08:16:12;23.20;63.60
1175;DHT22;576;48.418;10.074;2023-11-22T08:18:41;23.20;63.60
1175;DHT22;576;48.418;10.074;2023-11-22T08:21:11;23.20;63.50
1175;DHT22;576;48.418;10.074;2023-11-22T08:23:39;23.20;63.40
1175;DHT22;576;48.418;10.074;2023-11-22T08:26:09;23.20;63.40
1175;DHT22;576;48.418;10.074;2023-11-22T08:28:39;23.20;63.40
1175;DHT22;576;48.418;10.074;2023-11-22T08:31:07;23.20;63.40
1175;DHT22;576;48.418;10.074;2023-11-22T08:33:37;23.30;63.30
1175;DHT22;576;48.418;10.074;2023-11-22T08:36:07;23.20;63.30
1175;DHT22;576;48.418;10.074;2023-11-22T08:38:36;23.20;63.30
1175;DHT22;576;48.418;10.074;2023-11-22T08:41:09;23.30;63.20
1175;DHT22;576;48.418;10.074;2023-11-22T08:43:41;23.20;63.20
1175;DHT22;576;48.418;10.074;2023-11-22T08:46:09;23.20;63.10
1175;DHT22;576;48.418;10.074;2023-11-22T08:48:41;23.20;63.10
1175;DHT22;576;48.418;10.074;2023-11-22T08:51:10;23.20;63.10
1175;DHT22;576;48.418;10.074;2023-11-22T08:53:39;23.20;63.10
1175;DHT22;576;48.418;10.074;2023-11-22T08:56:09;23.20;63.00
1175;DHT22;576;48.418;10.074;2023-11-22T08:58:38;23.20;63.00
1175;DHT22;576;48.418;10.074;2023-11-22T09:01:07;23.20;63.10
1175;DHT22;576;48.418;10.074;2023-11-22T09:03:35;23.20;63.10
1175;DHT22;576;48.418;10.074;2023-11-22T09:06:05;23.20;63.10
1175;DHT22;576;48.418;10.074;2023-11-22T09:08:34;23.20;63.10
1175;DHT22;576;48.418;10.074;2023-11-22T09:11:03;23.10;63.10
1175;DHT22;576;48.418;10.074;2023-11-22T09:13:35;23.20;63.20
1175;DHT22;576;48.418;10.074;2023-11-22T09:16:03;23.20;63.10
1175;DHT22;576;48.418;10.074;2023-11-22T09:18:33;23.20;63.10
1175;DHT22;576;48.418;10.074;2023-11-22T09:21:01;23.20;63.10
1175;DHT22;576;48.418;10.074;2023-11-22T09:23:30;23.20;63.10
1175;DHT22;576;48.418;10.074;2023-11-22T09:25:58;23.20;63.00
1175;DHT22;576;48.418;10.074;2023-11-22T09:28:27;23.20;63.00
1175;DHT22;576;48.418;10.074;2023-11-22T09:30:56;23.20;63.00
1175;DHT22;576;48.418;10.074;2023-11-22T09:33:32;23.20;63.00
1175;DHT22;576;48.418;10.074;2023-11-22T09:36:01;23.20;62.90
1175;DHT22;576;48.418;10.074;2023-11-22T09:38:35;23.20;62.90
1175;DHT22;576;48.418;10.074;2023-11-22T09:41:05;23.20;62.90
1175;DHT22;576;48.418;10.074;2023-11-22T09:43:35;23.20;62.90
1175;DHT22;576;48.418;10.074;2023-11-22T09:46:08;23.20;62.90
1175;DHT22;576;48.418;10.074;2023-11-22T09:48:39;23.20;62.80
1175;DHT22;576;48.418;10.074;2023-11-22T09:51:12;23.20;62.80
1175;DHT22;576;48.418;10.074;2023-11-22T09:53:51;23.20;62.80
1175;DHT22;576;48.418;10.074;2023-11-22T09:56:20;23.20;62.80
1175;DHT22;576;48.418;10.074;2023-11-22T09:58:52;23.20;62.70
1175;DHT22;576;48.418;10.074;2023-11-22T10:01:24;23.20;62.70
1175;DHT22;576;48.418;10.074;2023-11-22T10:03:55;23.20;62.70
1175;DHT22;576;48.418;10.074;2023-11-22T10:06:23;23.20;62.70
1175;DHT22;576;48.418;10.074;2023-11-22T10:08:52;23.20;62.80
1175;DHT22;576;48.418;10.074;2023-11-22T10:11:20;23.20;62.80
1175;DHT22;576;48.418;10.074;2023-11-22T10:13:49;23.10;62.80
1175;DHT22;576;48.418;10.074;2023-11-22T10:16:18;23.10;62.80
1175;DHT22;576;48.418;10.074;2023-11-22T10:18:49;23.20;62.90
1175;DHT22;576;48.418;10.074;2023-11-22T10:21:23;23.20;62.90
1175;DHT22;576;48.418;10.074;2023-11-22T10:23:54;23.20;62.90
1175;DHT22;576;48.418;10.074;2023-11-22T10:26:24;23.20;62.80
1175;DHT22;576;48.418;10.074;2023-11-22T10:28:55;23.20;62.80
1175;DHT22;576;48.418;10.074;2023-11-22T10:31:24;23.20;62.70
1175;DHT22;576;48.418;10.074;2023-11-22T10:33:54;23.20;62.70
1175;DHT22;576;48.418;10.074;2023-11-22T10:36:25;23.20;62.60
1175;DHT22;576;48.418;10.074;2023-11-22T10:38:54;23.30;62.60
1175;DHT22;576;48.418;10.074;2023-11-22T10:41:22;23.30;62.50
1175;DHT22;576;48.418;10.074;2023-11-22T10:43:52;23.30;62.50
1175;DHT22;576;48.418;10.074;2023-11-22T10:46:28;23.30;62.40
1175;DHT22;576;48.418;10.074;2023-11-22T10:48:59;23.30;62.40
1175;DHT22;576;48.418;10.074;2023-11-22T10:51:30;23.30;62.40
1175;DHT22;576;48.418;10.074;2023-11-22T10:54:00;23.30;62.40
1175;DHT22;576;48.418;10.074;2023-11-22T10:56:36;23.30;62.40
1175;DHT22;576;48.418;10.074;2023-11-22T10:59:10;23.30;62.40
1175;DHT22;576;48.418;10.074;2023-11-22T11:01:44;23.30;62.30
1175;DHT22;576;48.418;10.074;2023-11-22T11:04:20;23.30;62.40
1175;DHT22;576;48.418;10.074;2023-11-22T11:06:54;23.30;62.40
1175;DHT22;576;48.418;10.074;2023-11-22T11:09:24;23.30;62.40
1175;DHT22;576;48.418;10.074;2023-11-22T11:11:57;23.30;62.40
1175;DHT22;576;48.418;10.074;2023-11-22T11:14:26;23.30;62.50
1175;DHT22;576;48.418;10.074;2023-11-22T11:16:55;23.20;62.50
1175;DHT22;576;48.418;10.074;2023-11-22T11:19:27;23.20;62.60
1175;DHT22;576;48.418;10.074;2023-11-22T11:22:00;23.20;62.70
1175;DHT22;576;48.418;10.074;2023-11-22T11:24:28;23.20;62.70
1175;DHT22;576;48.418;10.074;2023-11-22T11:27:02;23.30;62.70
1175;DHT22;576;48.418;10.074;2023-11-22T11:29:31;23.20;62.70
1175;DHT22;576;48.418;10.074;2023-11-22T11:32:02;23.30;62.70
1175;DHT22;576;48.418;10.074;2023-11-22T11:34:32;23.30;62.70
1175;DHT22;576;48.418;10.074;2023-11-22T11:37:07;23.30;62.60
1175;DHT22;576;48.418;10.074;2023-11-22T11:39:40;23.30;62.60
1175;DHT22;576;48.418;10.074;2023-11-22T11:42:10;23.30;62.50
1175;DHT22;576;48.418;10.074;2023-11-22T11:45:04;23.30;62.60
1175;DHT22;576;48.418;10.074;2023-11-22T11:47:34;23.30;62.60
1175;DHT22;576;48.418;10.074;2023-11-22T11:50:04;23.30;62.60
1175;DHT22;576;48.418;10.074;2023-11-22T11:52:33;23.30;62.60
1175;DHT22;576;48.418;10.074;2023-11-22T11:55:03;23.30;62.60
1175;DHT22;576;48.418;10.074;2023-11-22T11:57:32;23.30;62.60
1175;DHT22;576;48.418;10.074;2023-11-22T12:00:00;23.30;62.60
1175;DHT22;576;48.418;10.074;2023-11-22T12:02:37;23.30;62.90
1175;DHT22;576;48.418;10.074;2023-11-22T12:05:07;23.40;62.80
1175;DHT22;576;48.418;10.074;2023-11-22T12:07:37;23.40;62.90
1175;DHT22;576;48.418;10.074;2023-11-22T12:10:06;23.40;62.90
1175;DHT22;576;48.418;10.074;2023-11-22T12:12:36;23.50;62.90
1175;DHT22;576;48.418;10.074;2023-11-22T12:15:07;23.60;62.90
1175;DHT22;576;48.418;10.074;2023-11-22T12:17:36;23.60;62.80
1175;DHT22;576;48.418;10.074;2023-11-22T12:20:14;23.70;62.80
1175;DHT22;576;48.418;10.074;2023-11-22T12:22:46;23.80;62.80
1175;DHT22;576;48.418;10.074;2023-11-22T12:25:14;23.80;62.70
1175;DHT22;576;48.418;10.074;2023-11-22T12:27:43;23.90;62.70
1175;DHT22;576;48.418;10.074;2023-11-22T12:30:28;23.90;62.70
1175;DHT22;576;48.418;10.074;2023-11-22T12:32:57;24.00;62.70
1175;DHT22;576;48.418;10.074;2023-11-22T12:35:30;24.00;62.60
1175;DHT22;576;48.418;10.074;2023-11-22T12:37:59;24.10;62.60
1175;DHT22;576;48.418;10.074;2023-11-22T12:40:28;24.10;62.60
1175;DHT22;576;48.418;10.074;2023-11-22T12:42:58;24.20;62.60
1175;DHT22;576;48.418;10.074;2023-11-22T12:45:28;24.20;62.60
1175;DHT22;576;48.418;10.074;2023-11-22T12:47:57;24.30;62.50
1175;DHT22;576;48.418;10.074;2023-11-22T12:50:32;24.40;62.40
1175;DHT22;576;48.418;10.074;2023-11-22T12:53:08;24.40;62.30
1175;DHT22;576;48.418;10.074;2023-11-22T12:55:41;24.40;61.90
1175;DHT22;576;48.418;10.074;2023-11-22T12:58:11;24.30;61.70
1175;DHT22;576;48.418;10.074;2023-11-22T13:00:39;24.30;61.50
1175;DHT22;576;48.418;10.074;2023-11-22T13:03:08;24.20;61.50
1175;DHT22;576;48.418;10.074;2023-11-22T13:05:40;24.20;61.50
1175;DHT22;576;48.418;10.074;2023-11-22T13:08:10;24.10;61.60
1175;DHT22;576;48.418;10.074;2023-11-22T13:10:40;24.00;61.60
1175;DHT22;576;48.418;10.074;2023-11-22T13:13:11;24.00;61.70
1175;DHT22;576;48.418;10.074;2023-11-22T13:15:39;23.90;61.80
1175;DHT22;576;48.418;10.074;2023-11-22T13:18:09;23.90;61.80
1175;DHT22;576;48.418;10.074;2023-11-22T13:20:38;23.90;61.90
1175;DHT22;576;48.418;10.074;2023-11-22T13:23:08;23.80;61.90
1175;DHT22;576;48.418;10.074;2023-11-22T13:25:36;23.80;61.90
1175;DHT22;576;48.418;10.074;2023-11-22T13:28:04;23.80;62.00
1175;DHT22;576;48.418;10.074;2023-11-22T13:30:33;23.80;62.10
1175;DHT22;576;48.418;10.074;2023-11-22T13:33:01;23.70;62.10
1175;DHT22;576;48.418;10.074;2023-11-22T13:35:30;23.80;62.20
1175;DHT22;576;48.418;10.074;2023-11-22T13:38:01;23.70;62.20
1175;DHT22;576;48.418;10.074;2023-11-22T13:40:29;23.70;62.30
1175;DHT22;576;48.418;10.074;2023-11-22T13:42:58;23.70;62.30
1175;DHT22;576;48.418;10.074;2023-11-22T13:45:26;23.70;62.30
1175;DHT22;576;48.418;10.074;2023-11-22T13:47:56;23.70;62.40
1175;DHT22;576;48.418;10.074;2023-11-22T13:50:30;23.70;62.30
1175;DHT22;576;48.418;10.074;2023-11-22T13:53:00;23.70;62.30
1175;DHT22;576;48.418;10.074;2023-11-22T13:55:28;23.70;62.20
1175;DHT22;576;48.418;10.074;2023-11-22T13:57:57;23.70;62.20
1175;DHT22;576;48.418;10.074;2023-11-22T14:00:27;23.70;62.20
1175;DHT22;576;48.418;10.074;2023-11-22T14:03:01;23.70;62.20
1175;DHT22;576;48.418;10.074;2023-11-22T14:05:35;23.70;62.10
1175;DHT22;576;48.418;10.074;2023-11-22T14:08:07;23.70;62.10
1175;DHT22;576;48.418;10.074;2023-11-22T14:10:35;23.70;62.10
1175;DHT22;576;48.418;10.074;2023-11-22T14:13:04;23.70;62.10
1175;DHT22;576;48.418;10.074;2023-11-22T14:15:33;23.70;62.10
1175;DHT22;576;48.418;10.074;2023-11-22T14:18:01;23.70;62.00
1175;DHT22;576;48.418;10.074;2023-11-22T14:20:31;23.70;62.00
1175;DHT22;576;48.418;10.074;2023-11-22T14:23:01;23.70;62.00
1175;DHT22;576;48.418;10.074;2023-11-22T14:25:31;23.80;62.00
1175;DHT22;576;48.418;10.074;2023-11-22T14:27:59;23.80;62.00
1175;DHT22;576;48.418;10.074;2023-11-22T14:30:28;23.80;61.90
1175;DHT22;576;48.418;10.074;2023-11-22T14:32:58;23.80;61.90
1175;DHT22;576;48.418;10.074;2023-11-22T14:35:27;23.90;61.90
1175;DHT22;576;48.418;10.074;2023-11-22T14:37:55;23.90;61.90
1175;DHT22;576;48.418;10.074;2023-11-22T14:40:25;23.90;61.80
1175;DHT22;576;48.418;10.074;2023-11-22T14:42:55;23.90;61.80
1175;DHT22;576;48.418;10.074;2023-11-22T14:45:24;23.90;61.80
1175;DHT22;576;48.418;10.074;2023-11-22T14:47:54;23.90;61.80
1175;DHT22;576;48.418;10.074;2023-11-22T14:50:23;23.90;61.80
1175;DHT22;576;48.418;10.074;2023-11-22T14:52:54;23.90;61.90
1175;DHT22;576;48.418;10.074;2023-11-22T14:55:23;24.00;61.90
1175;DHT22;576;48.418;10.074;2023-11-22T14:57:54;24.00;61.90
1175;DHT22;576;48.418;10.074;2023-11-22T15:00:25;24.00;61.90
1175;DHT22;576;48.418;10.074;2023-11-22T15:02:53;24.00;61.90
1175;DHT22;576;48.418;10.074;2023-11-22T15:05:24;24.00;61.80
1175;DHT22;576;48.418;10.074;2023-11-22T15:07:54;24.00;61.70
1175;DHT22;576;48.418;10.074;2023-11-22T15:10:23;24.00;61.70
1175;DHT22;576;48.418;10.074;2023-11-22T15:12:52;24.00;61.70
1175;DHT22;576;48.418;10.074;2023-11-22T15:15:22;24.00;61.70
1175;DHT22;576;48.418;10.074;2023-11-22T15:17:53;23.90;61.70
1175;DHT22;576;48.418;10.074;2023-11-22T15:20:22;23.90;61.70
1175;DHT22;576;48.418;10.074;2023-11-22T15:22:50;23.90;61.60
1175;DHT22;576;48.418;10.074;2023-11-22T15:25:19;23.80;61.60
1175;DHT22;576;48.418;10.074;2023-11-22T15:27:47;23.80;61.60
1175;DHT22;576;48.418;10.074;2023-11-22T15:30:15;23.80;61.60
1175;DHT22;576;48.418;10.074;2023-11-22T15:32:47;23.80;61.50
1175;DHT22;576;48.418;10.074;2023-11-22T15:35:16;23.80;61.50
1175;DHT22;576;48.418;10.074;2023-11-22T15:37:45;23.80;61.50
1175;DHT22;576;48.418;10.074;2023-11-22T15:40:13;23.70;61.40
1175;DHT22;576;48.418;10.074;2023-11-22T15:42:44;23.70;61.50
1175;DHT22;576;48.418;10.074;2023-11-22T15:45:12;23.70;61.50
1175;DHT22;576;48.418;10.074;2023-11-22T15:47:41;23.70;61.50
1175;DHT22;576;48.418;10.074;2023-11-22T15:50:14;23.70;61.50
1175;DHT22;576;48.418;10.074;2023-11-22T15:52:43;23.70;61.50
1175;DHT22;576;48.418;10.074;2023-11-22T15:55:11;23.70;61.60
1175;DHT22;576;48.418;10.074;2023-11-22T15:57:40;23.70;61.60
1175;DHT22;576;48.418;10.074;2023-11-22T16:00:09;23.70;61.50
1175;DHT22;576;48.418;10.074;2023-11-22T16:02:38;23.70;61.60
1175;DHT22;576;48.418;10.074;2023-11-22T16:05:07;23.70;61.60
1175;DHT22;576;48.418;10.074;2023-11-22T16:07:41;23.70;61.60
1175;DHT22;576;48.418;10.074;2023-11-22T16:10:09;23.70;61.60
1175;DHT22;576;48.418;10.074;2023-11-22T16:12:38;23.80;61.60
1175;DHT22;576;48.418;10.074;2023-11-22T16:15:07;23.80;61.50
1175;DHT22;576;48.418;10.074;2023-11-22T16:17:39;23.80;61.50